sensor_id;sensor_type;location;lat;lon;timestamp;pressure;altitude;pressure_sealevel;temperature;humidity
55755;BME280;41674;52.290;-1.474;2023-05-15T00:01:24;101249.92;;;9.34;99.54
55755;BME280;41674;52.290;-1.474;2023-05-15T00:03:54;101252.23;;;9.24;99.22
55755;BME280;41674;52.290;-1.474;2023-05-15T00:06:23;101254.83;;;8.75;98.89
55755;BME280;41674;52.290;-1.474;2023-05-15T00:08:53;101254.89;;;9.46;96.06
55755;BME280;41674;52.290;-1.474;2023-05-15T00:11:23;101255.68;;;9.45;96.19
55755;BME280;41674;52.290;-1.474;2023-05-15T00:13:52;101255.38;;;9.30;96.07
55755;BME280;41674;52.290;-1.474;2023-05-15T00:16:23;101260.48;;;8.65;97.45
55755;BME280;41674;52.290;-1.474;2023-05-15T00:18:51;101257.13;;;8.78;97.37
55755;BME280;41674;52.290;-1.474;2023-05-15T00:21:21;101258.96;;;9.16;96.52
55755;BME280;41674;52.290;-1.474;2023-05-15T00:23:50;101262.11;;;8.63;98.10
55755;BME280;41674;52.290;-1.474;2023-05-15T00:26:22;101260.16;;;8.58;98.01
55755;BME280;41674;52.290;-1.474;2023-05-15T00:28:50;101260.42;;;9.19;96.91
55755;BME280;41674;52.290;-1.474;2023-05-15T00:31:19;101259.28;;;8.56;98.78
55755;BME280;41674;52.290;-1.474;2023-05-15T00:33:49;101262.58;;;8.60;98.99
55755;BME280;41674;52.290;-1.474;2023-05-15T00:36:18;101265.08;;;9.01;96.16
55755;BME280;41674;52.290;-1.474;2023-05-15T00:38:48;101268.83;;;8.91;96.43
55755;BME280;41674;52.290;-1.474;2023-05-15T00:41:18;101271.99;;;9.25;93.67
55755;BME280;41674;52.290;-1.474;2023-05-15T00:43:49;101275.73;;;9.16;94.07
55755;BME280;41674;52.290;-1.474;2023-05-15T00:46:19;101277.41;;;9.13;93.22
55755;BME280;41674;52.290;-1.474;2023-05-15T00:51:16;101277.17;;;9.08;92.90
55755;BME280;41674;52.290;-1.474;2023-05-15T00:53:46;101274.23;;;9.10;94.27
55755;BME280;41674;52.290;-1.474;2023-05-15T00:56:17;101276.91;;;9.33;94.90
55755;BME280;41674;52.290;-1.474;2023-05-15T00:58:45;101274.14;;;8.56;97.30
55755;BME280;41674;52.290;-1.474;2023-05-15T01:01:15;101275.91;;;8.48;95.24
55755;BME280;41674;52.290;-1.474;2023-05-15T01:03:45;101278.85;;;9.05;94.97
55755;BME280;41674;52.290;-1.474;2023-05-15T01:06:14;101280.88;;;9.05;92.83
55755;BME280;41674;52.290;-1.474;2023-05-15T01:08:45;101284.17;;;9.26;91.91
55755;BME280;41674;52.290;-1.474;2023-05-15T01:11:14;101286.03;;;8.89;94.76
55755;BME280;41674;52.290;-1.474;2023-05-15T01:13:43;101288.37;;;9.18;94.81
55755;BME280;41674;52.290;-1.474;2023-05-15T01:16:12;101286.41;;;8.76;95.00
55755;BME280;41674;52.290;-1.474;2023-05-15T01:21:33;101292.32;;;8.84;94.85
55755;BME280;41674;52.290;-1.474;2023-05-15T01:23:49;101297.42;;;8.65;95.73
55755;BME280;41674;52.290;-1.474;2023-05-15T01:26:27;101298.37;;;9.42;93.60
55755;BME280;41674;52.290;-1.474;2023-05-15T01:28:45;101299.66;;;8.90;95.74
55755;BME280;41674;52.290;-1.474;2023-05-15T01:31:14;101297.96;;;9.11;94.22
55755;BME280;41674;52.290;-1.474;2023-05-15T01:33:43;101299.31;;;9.16;93.11
55755;BME280;41674;52.290;-1.474;2023-05-15T01:36:13;101304.89;;;9.56;91.93
55755;BME280;41674;52.290;-1.474;2023-05-15T01:38:41;101303.22;;;9.24;93.46
55755;BME280;41674;52.290;-1.474;2023-05-15T01:43:39;101304.62;;;8.73;93.39
55755;BME280;41674;52.290;-1.474;2023-05-15T01:46:08;101304.60;;;8.22;95.18
55755;BME280;41674;52.290;-1.474;2023-05-15T01:48:37;101301.80;;;8.33;95.24
55755;BME280;41674;52.290;-1.474;2023-05-15T01:51:07;101298.72;;;8.89;92.30
55755;BME280;41674;52.290;-1.474;2023-05-15T01:56:07;101294.25;;;8.10;94.80
55755;BME280;41674;52.290;-1.474;2023-05-15T01:58:36;101294.52;;;8.41;94.67
55755;BME280;41674;52.290;-1.474;2023-05-15T02:01:05;101296.63;;;8.37;94.22
55755;BME280;41674;52.290;-1.474;2023-05-15T02:03:35;101295.04;;;8.35;93.59
55755;BME280;41674;52.290;-1.474;2023-05-15T02:06:04;101293.99;;;8.32;93.39
55755;BME280;41674;52.290;-1.474;2023-05-15T02:08:33;101296.77;;;7.64;95.36
55755;BME280;41674;52.290;-1.474;2023-05-15T02:11:04;101301.50;;;7.97;95.61
55755;BME280;41674;52.290;-1.474;2023-05-15T02:13:33;101304.08;;;8.34;96.60
55755;BME280;41674;52.290;-1.474;2023-05-15T02:16:03;101301.80;;;7.93;98.29
55755;BME280;41674;52.290;-1.474;2023-05-15T02:18:32;101305.69;;;7.79;97.21
55755;BME280;41674;52.290;-1.474;2023-05-15T02:21:02;101308.55;;;7.53;97.95
55755;BME280;41674;52.290;-1.474;2023-05-15T02:23:31;101308.59;;;8.43;96.47
55755;BME280;41674;52.290;-1.474;2023-05-15T02:26:13;101307.99;;;7.85;97.38
55755;BME280;41674;52.290;-1.474;2023-05-15T02:28:37;101311.23;;;7.93;96.74
55755;BME280;41674;52.290;-1.474;2023-05-15T02:31:06;101314.01;;;7.49;99.11
55755;BME280;41674;52.290;-1.474;2023-05-15T02:33:36;101318.85;;;7.81;98.91
55755;BME280;41674;52.290;-1.474;2023-05-15T02:36:04;101319.87;;;7.54;99.30
55755;BME280;41674;52.290;-1.474;2023-05-15T02:38:34;101317.95;;;7.34;100.00
55755;BME280;41674;52.290;-1.474;2023-05-15T02:41:00;101318.68;;;7.35;100.00
55755;BME280;41674;52.290;-1.474;2023-05-15T02:43:28;101321.70;;;7.22;100.00
55755;BME280;41674;52.290;-1.474;2023-05-15T02:45:59;101317.31;;;7.32;100.00
55755;BME280;41674;52.290;-1.474;2023-05-15T02:48:28;101322.11;;;7.09;100.00
55755;BME280;41674;52.290;-1.474;2023-05-15T02:50:57;101321.99;;;7.30;100.00
55755;BME280;41674;52.290;-1.474;2023-05-15T02:53:27;101324.94;;;7.64;99.74
55755;BME280;41674;52.290;-1.474;2023-05-15T02:58:26;101333.91;;;7.09;98.35
55755;BME280;41674;52.290;-1.474;2023-05-15T03:00:55;101334.46;;;7.41;98.61
55755;BME280;41674;52.290;-1.474;2023-05-15T03:03:25;101339.06;;;7.37;98.24
55755;BME280;41674;52.290;-1.474;2023-05-15T03:05:55;101339.80;;;7.73;96.62
55755;BME280;41674;52.290;-1.474;2023-05-15T03:08:24;101343.66;;;7.41;96.60
55755;BME280;41674;52.290;-1.474;2023-05-15T03:10:54;101340.71;;;7.30;98.51
55755;BME280;41674;52.290;-1.474;2023-05-15T03:13:23;101345.42;;;6.96;99.48
55755;BME280;41674;52.290;-1.474;2023-05-15T03:15:52;101349.28;;;7.35;97.82
55755;BME280;41674;52.290;-1.474;2023-05-15T03:18:22;101352.71;;;7.47;96.73
55755;BME280;41674;52.290;-1.474;2023-05-15T03:20:52;101354.14;;;7.27;97.54
55755;BME280;41674;52.290;-1.474;2023-05-15T03:23:21;101350.99;;;7.04;98.00
55755;BME280;41674;52.290;-1.474;2023-05-15T03:25:51;101350.19;;;7.67;97.42
55755;BME280;41674;52.290;-1.474;2023-05-15T03:28:21;101355.36;;;6.94;100.00
55755;BME280;41674;52.290;-1.474;2023-05-15T03:30:50;101357.13;;;7.37;97.23
55755;BME280;41674;52.290;-1.474;2023-05-15T03:33:20;101360.09;;;7.56;96.56
55755;BME280;41674;52.290;-1.474;2023-05-15T03:35:49;101359.40;;;7.26;96.65
55755;BME280;41674;52.290;-1.474;2023-05-15T03:38:19;101357.88;;;7.39;96.10
55755;BME280;41674;52.290;-1.474;2023-05-15T03:40:49;101358.37;;;7.43;95.85
55755;BME280;41674;52.290;-1.474;2023-05-15T03:43:18;101357.20;;;6.76;96.98
55755;BME280;41674;52.290;-1.474;2023-05-15T03:45:48;101359.91;;;7.56;94.34
55755;BME280;41674;52.290;-1.474;2023-05-15T03:48:18;101360.01;;;7.01;95.94
55755;BME280;41674;52.290;-1.474;2023-05-15T03:50:47;101360.33;;;6.92;96.46
55755;BME280;41674;52.290;-1.474;2023-05-15T03:53:17;101364.51;;;7.56;93.99
55755;BME280;41674;52.290;-1.474;2023-05-15T03:55:46;101365.36;;;7.35;93.28
55755;BME280;41674;52.290;-1.474;2023-05-15T03:58:16;101368.28;;;7.02;95.21
55755;BME280;41674;52.290;-1.474;2023-05-15T04:00:45;101371.72;;;7.39;95.82
55755;BME280;41674;52.290;-1.474;2023-05-15T04:03:14;101376.21;;;6.68;97.78
55755;BME280;41674;52.290;-1.474;2023-05-15T04:05:44;101380.54;;;6.60;99.11
55755;BME280;41674;52.290;-1.474;2023-05-15T04:08:13;101380.64;;;6.88;96.99
55755;BME280;41674;52.290;-1.474;2023-05-15T04:10:43;101385.72;;;7.28;94.55
55755;BME280;41674;52.290;-1.474;2023-05-15T04:13:12;101391.51;;;6.99;97.02
55755;BME280;41674;52.290;-1.474;2023-05-15T04:15:42;101392.68;;;7.24;96.66
55755;BME280;41674;52.290;-1.474;2023-05-15T04:18:17;101398.44;;;6.58;98.97
55755;BME280;41674;52.290;-1.474;2023-05-15T04:20:41;101400.11;;;6.43;100.00
55755;BME280;41674;52.290;-1.474;2023-05-15T04:23:11;101406.00;;;6.55;100.00
55755;BME280;41674;52.290;-1.474;2023-05-15T04:25:41;101404.06;;;6.84;100.00
55755;BME280;41674;52.290;-1.474;2023-05-15T04:28:10;101402.05;;;7.31;98.58
55755;BME280;41674;52.290;-1.474;2023-05-15T04:30:40;101399.90;;;7.80;95.68
55755;BME280;41674;52.290;-1.474;2023-05-15T04:33:10;101397.59;;;7.34;96.46
55755;BME280;41674;52.290;-1.474;2023-05-15T04:35:39;101400.08;;;7.65;94.90
55755;BME280;41674;52.290;-1.474;2023-05-15T04:38:09;101405.19;;;6.95;97.07
55755;BME280;41674;52.290;-1.474;2023-05-15T04:40:38;101402.69;;;7.46;95.06
55755;BME280;41674;52.290;-1.474;2023-05-15T04:43:08;101406.47;;;7.43;93.65
55755;BME280;41674;52.290;-1.474;2023-05-15T04:45:38;101407.21;;;7.21;94.13
55755;BME280;41674;52.290;-1.474;2023-05-15T04:48:07;101407.42;;;8.10;90.87
55755;BME280;41674;52.290;-1.474;2023-05-15T04:50:37;101406.72;;;8.22;89.56
55755;BME280;41674;52.290;-1.474;2023-05-15T04:53:07;101410.85;;;7.36;93.86
55755;BME280;41674;52.290;-1.474;2023-05-15T04:55:36;101413.44;;;7.25;94.52
55755;BME280;41674;52.290;-1.474;2023-05-15T04:58:06;101417.72;;;7.31;93.68
55755;BME280;41674;52.290;-1.474;2023-05-15T05:00:35;101422.19;;;6.84;95.22
55755;BME280;41674;52.290;-1.474;2023-05-15T05:05:35;101425.39;;;6.56;95.24
55755;BME280;41674;52.290;-1.474;2023-05-15T05:08:04;101427.54;;;6.89;94.52
55755;BME280;41674;52.290;-1.474;2023-05-15T05:10:34;101428.28;;;7.36;92.59
55755;BME280;41674;52.290;-1.474;2023-05-15T05:13:04;101431.95;;;6.87;95.82
55755;BME280;41674;52.290;-1.474;2023-05-15T05:15:33;101436.93;;;6.96;95.44
55755;BME280;41674;52.290;-1.474;2023-05-15T05:18:03;101433.61;;;6.51;98.06
55755;BME280;41674;52.290;-1.474;2023-05-15T05:20:32;101436.71;;;6.50;96.41
55755;BME280;41674;52.290;-1.474;2023-05-15T05:23:02;101440.15;;;6.39;96.96
55755;BME280;41674;52.290;-1.474;2023-05-15T05:25:32;101442.19;;;6.25;97.07
55755;BME280;41674;52.290;-1.474;2023-05-15T05:28:01;101443.60;;;6.77;95.56
55755;BME280;41674;52.290;-1.474;2023-05-15T05:30:31;101442.79;;;6.26;98.05
55755;BME280;41674;52.290;-1.474;2023-05-15T05:33:00;101446.18;;;6.50;97.83
55755;BME280;41674;52.290;-1.474;2023-05-15T05:35:30;101446.42;;;6.04;99.46
55755;BME280;41674;52.290;-1.474;2023-05-15T05:38:00;101446.28;;;6.32;98.29
55755;BME280;41674;52.290;-1.474;2023-05-15T05:40:29;101449.54;;;6.26;97.49
55755;BME280;41674;52.290;-1.474;2023-05-15T05:43:00;101452.46;;;6.46;95.76
55755;BME280;41674;52.290;-1.474;2023-05-15T05:45:29;101452.96;;;6.51;97.25
55755;BME280;41674;52.290;-1.474;2023-05-15T05:47:58;101454.13;;;6.52;97.61
55755;BME280;41674;52.290;-1.474;2023-05-15T05:50:28;101459.96;;;5.90;98.48
55755;BME280;41674;52.290;-1.474;2023-05-15T05:52:58;101460.53;;;6.64;96.82
55755;BME280;41674;52.290;-1.474;2023-05-15T05:55:27;101466.57;;;6.81;96.00
55755;BME280;41674;52.290;-1.474;2023-05-15T05:57:57;101466.60;;;6.17;97.97
55755;BME280;41674;52.290;-1.474;2023-05-15T06:00:26;101470.03;;;6.26;97.37
55755;BME280;41674;52.290;-1.474;2023-05-15T06:02:57;101470.04;;;5.97;99.13
55755;BME280;41674;52.290;-1.474;2023-05-15T06:05:26;101471.53;;;6.39;98.08
55755;BME280;41674;52.290;-1.474;2023-05-15T06:07:56;101473.95;;;6.22;98.29
55755;BME280;41674;52.290;-1.474;2023-05-15T06:10:25;101478.66;;;6.49;97.55
55755;BME280;41674;52.290;-1.474;2023-05-15T06:12:55;101478.83;;;6.03;98.88
55755;BME280;41674;52.290;-1.474;2023-05-15T06:15:24;101479.84;;;6.32;97.75
55755;BME280;41674;52.290;-1.474;2023-05-15T06:17:54;101482.75;;;6.53;96.43
55755;BME280;41674;52.290;-1.474;2023-05-15T06:20:25;101486.48;;;6.48;94.68
55755;BME280;41674;52.290;-1.474;2023-05-15T06:22:53;101487.77;;;6.77;94.12
55755;BME280;41674;52.290;-1.474;2023-05-15T06:25:23;101492.31;;;6.80;93.01
55755;BME280;41674;52.290;-1.474;2023-05-15T06:27:52;101498.51;;;7.12;89.01
55755;BME280;41674;52.290;-1.474;2023-05-15T06:30:22;101498.69;;;6.65;91.97
55755;BME280;41674;52.290;-1.474;2023-05-15T06:32:52;101496.96;;;6.88;90.41
55755;BME280;41674;52.290;-1.474;2023-05-15T06:35:21;101499.78;;;7.32;90.76
55755;BME280;41674;52.290;-1.474;2023-05-15T06:37:51;101500.07;;;6.98;90.78
55755;BME280;41674;52.290;-1.474;2023-05-15T06:40:21;101497.74;;;7.01;90.24
55755;BME280;41674;52.290;-1.474;2023-05-15T06:42:50;101502.61;;;6.76;90.07
55755;BME280;41674;52.290;-1.474;2023-05-15T06:45:20;101500.66;;;7.09;90.15
55755;BME280;41674;52.290;-1.474;2023-05-15T06:47:49;101502.76;;;7.27;88.60
55755;BME280;41674;52.290;-1.474;2023-05-15T06:50:19;101500.04;;;7.85;87.40
55755;BME280;41674;52.290;-1.474;2023-05-15T06:52:49;101507.48;;;7.43;86.84
55755;BME280;41674;52.290;-1.474;2023-05-15T06:55:18;101503.74;;;7.47;86.64
55755;BME280;41674;52.290;-1.474;2023-05-15T06:57:48;101496.90;;;7.93;85.14
55755;BME280;41674;52.290;-1.474;2023-05-15T07:00:18;101503.98;;;7.04;86.44
55755;BME280;41674;52.290;-1.474;2023-05-15T07:02:47;101509.46;;;7.93;86.64
55755;BME280;41674;52.290;-1.474;2023-05-15T07:05:17;101513.54;;;7.36;85.97
55755;BME280;41674;52.290;-1.474;2023-05-15T07:07:46;101516.66;;;7.44;85.64
55755;BME280;41674;52.290;-1.474;2023-05-15T07:10:16;101509.61;;;7.34;86.16
55755;BME280;41674;52.290;-1.474;2023-05-15T07:12:46;101512.90;;;7.22;88.50
55755;BME280;41674;52.290;-1.474;2023-05-15T07:15:15;101510.37;;;7.29;87.91
55755;BME280;41674;52.290;-1.474;2023-05-15T07:17:44;101518.35;;;7.54;86.67
55755;BME280;41674;52.290;-1.474;2023-05-15T07:20:14;101518.33;;;7.61;87.09
55755;BME280;41674;52.290;-1.474;2023-05-15T07:22:44;101513.69;;;7.69;88.03
55755;BME280;41674;52.290;-1.474;2023-05-15T07:25:13;101520.27;;;7.68;85.51
55755;BME280;41674;52.290;-1.474;2023-05-15T07:27:43;101511.39;;;7.79;85.85
55755;BME280;41674;52.290;-1.474;2023-05-15T07:30:13;101519.93;;;7.62;86.86
55755;BME280;41674;52.290;-1.474;2023-05-15T07:32:42;101514.56;;;8.17;85.66
55755;BME280;41674;52.290;-1.474;2023-05-15T07:35:11;101518.31;;;7.69;85.74
55755;BME280;41674;52.290;-1.474;2023-05-15T07:37:41;101519.82;;;7.74;85.63
55755;BME280;41674;52.290;-1.474;2023-05-15T07:40:11;101520.09;;;8.42;83.36
55755;BME280;41674;52.290;-1.474;2023-05-15T07:42:42;101519.79;;;7.59;83.72
55755;BME280;41674;52.290;-1.474;2023-05-15T07:45:10;101521.44;;;7.56;85.17
55755;BME280;41674;52.290;-1.474;2023-05-15T07:47:44;101515.71;;;7.19;84.21
55755;BME280;41674;52.290;-1.474;2023-05-15T07:50:09;101521.51;;;7.58;85.71
55755;BME280;41674;52.290;-1.474;2023-05-15T07:52:39;101521.31;;;7.76;83.37
55755;BME280;41674;52.290;-1.474;2023-05-15T07:55:09;101510.25;;;8.13;80.55
55755;BME280;41674;52.290;-1.474;2023-05-15T07:57:38;101514.35;;;8.28;81.81
55755;BME280;41674;52.290;-1.474;2023-05-15T08:00:08;101509.71;;;8.70;79.28
55755;BME280;41674;52.290;-1.474;2023-05-15T08:02:37;101512.14;;;8.13;76.36
55755;BME280;41674;52.290;-1.474;2023-05-15T08:05:07;101513.40;;;8.89;77.16
55755;BME280;41674;52.290;-1.474;2023-05-15T08:07:36;101508.43;;;8.58;74.99
55755;BME280;41674;52.290;-1.474;2023-05-15T08:10:07;101512.14;;;8.92;74.77
55755;BME280;41674;52.290;-1.474;2023-05-15T08:12:36;101505.22;;;8.72;75.77
55755;BME280;41674;52.290;-1.474;2023-05-15T08:15:06;101507.08;;;9.19;77.07
55755;BME280;41674;52.290;-1.474;2023-05-15T08:17:34;101507.03;;;9.50;74.51
55755;BME280;41674;52.290;-1.474;2023-05-15T08:20:05;101509.44;;;8.97;75.89
55755;BME280;41674;52.290;-1.474;2023-05-15T08:22:33;101509.38;;;8.72;77.84
55755;BME280;41674;52.290;-1.474;2023-05-15T08:25:03;101513.39;;;8.97;75.64
55755;BME280;41674;52.290;-1.474;2023-05-15T08:27:32;101511.57;;;8.45;76.34
55755;BME280;41674;52.290;-1.474;2023-05-15T08:30:02;101508.46;;;8.19;76.96
55755;BME280;41674;52.290;-1.474;2023-05-15T08:32:32;101514.10;;;8.74;75.50
55755;BME280;41674;52.290;-1.474;2023-05-15T08:35:01;101515.06;;;8.36;74.06
55755;BME280;41674;52.290;-1.474;2023-05-15T08:37:31;101518.40;;;9.19;75.46
55755;BME280;41674;52.290;-1.474;2023-05-15T08:40:01;101520.51;;;8.71;74.22
55755;BME280;41674;52.290;-1.474;2023-05-15T08:42:34;101516.56;;;8.82;75.27
55755;BME280;41674;52.290;-1.474;2023-05-15T08:45:00;101512.81;;;9.05;75.14
55755;BME280;41674;52.290;-1.474;2023-05-15T08:47:32;101506.98;;;8.40;72.05
55755;BME280;41674;52.290;-1.474;2023-05-15T08:50:03;101512.55;;;8.41;71.17
55755;BME280;41674;52.290;-1.474;2023-05-15T08:52:29;101510.79;;;8.40;72.65
55755;BME280;41674;52.290;-1.474;2023-05-15T08:54:58;101515.49;;;8.97;74.24
55755;BME280;41674;52.290;-1.474;2023-05-15T08:57:28;101510.14;;;9.08;71.24
55755;BME280;41674;52.290;-1.474;2023-05-15T08:59:58;101518.70;;;9.15;70.59
55755;BME280;41674;52.290;-1.474;2023-05-15T09:02:27;101517.34;;;9.43;68.49
55755;BME280;41674;52.290;-1.474;2023-05-15T09:04:56;101510.21;;;9.88;67.80
55755;BME280;41674;52.290;-1.474;2023-05-15T09:07:27;101514.81;;;10.47;67.20
55755;BME280;41674;52.290;-1.474;2023-05-15T09:09:56;101518.13;;;9.50;66.75
55755;BME280;41674;52.290;-1.474;2023-05-15T09:12:26;101525.47;;;9.58;65.38
55755;BME280;41674;52.290;-1.474;2023-05-15T09:17:24;101536.82;;;8.13;66.04
55755;BME280;41674;52.290;-1.474;2023-05-15T09:19:54;101534.16;;;8.54;67.09
55755;BME280;41674;52.290;-1.474;2023-05-15T09:22:24;101536.46;;;9.52;65.50
55755;BME280;41674;52.290;-1.474;2023-05-15T09:24:53;101536.57;;;9.31;65.81
55755;BME280;41674;52.290;-1.474;2023-05-15T09:27:23;101534.43;;;9.73;66.02
55755;BME280;41674;52.290;-1.474;2023-05-15T09:29:52;101535.37;;;9.57;65.71
55755;BME280;41674;52.290;-1.474;2023-05-15T09:32:26;101533.93;;;9.61;65.61
55755;BME280;41674;52.290;-1.474;2023-05-15T09:34:52;101532.16;;;9.48;65.97
55755;BME280;41674;52.290;-1.474;2023-05-15T09:37:28;101532.40;;;9.35;65.18
55755;BME280;41674;52.290;-1.474;2023-05-15T09:39:51;101535.66;;;9.46;65.12
55755;BME280;41674;52.290;-1.474;2023-05-15T09:42:22;101539.85;;;9.41;66.08
55755;BME280;41674;52.290;-1.474;2023-05-15T09:44:50;101541.85;;;9.62;69.24
55755;BME280;41674;52.290;-1.474;2023-05-15T09:47:19;101539.36;;;9.59;67.04
55755;BME280;41674;52.290;-1.474;2023-05-15T09:49:49;101540.56;;;9.60;68.46
55755;BME280;41674;52.290;-1.474;2023-05-15T09:52:19;101537.97;;;9.48;66.66
55755;BME280;41674;52.290;-1.474;2023-05-15T09:54:48;101540.13;;;9.54;65.29
55755;BME280;41674;52.290;-1.474;2023-05-15T09:57:21;101535.20;;;9.98;66.07
55755;BME280;41674;52.290;-1.474;2023-05-15T09:59:48;101539.48;;;9.64;63.68
55755;BME280;41674;52.290;-1.474;2023-05-15T10:02:23;101535.68;;;10.45;67.62
55755;BME280;41674;52.290;-1.474;2023-05-15T10:04:53;101538.72;;;10.18;62.38
55755;BME280;41674;52.290;-1.474;2023-05-15T10:07:27;101539.31;;;9.97;64.02
55755;BME280;41674;52.290;-1.474;2023-05-15T10:09:46;101538.27;;;10.22;65.50
55755;BME280;41674;52.290;-1.474;2023-05-15T10:12:15;101531.84;;;10.58;63.19
55755;BME280;41674;52.290;-1.474;2023-05-15T10:14:45;101535.24;;;10.90;63.29
55755;BME280;41674;52.290;-1.474;2023-05-15T10:17:15;101537.36;;;10.80;59.09
55755;BME280;41674;52.290;-1.474;2023-05-15T10:19:44;101532.08;;;10.62;61.15
55755;BME280;41674;52.290;-1.474;2023-05-15T10:22:15;101531.32;;;11.51;58.40
55755;BME280;41674;52.290;-1.474;2023-05-15T10:24:44;101530.27;;;11.27;57.32
55755;BME280;41674;52.290;-1.474;2023-05-15T10:27:14;101523.63;;;11.69;57.59
55755;BME280;41674;52.290;-1.474;2023-05-15T10:29:43;101529.96;;;10.88;59.60
55755;BME280;41674;52.290;-1.474;2023-05-15T10:32:12;101531.27;;;10.86;57.89
55755;BME280;41674;52.290;-1.474;2023-05-15T10:34:42;101525.41;;;10.96;56.25
55755;BME280;41674;52.290;-1.474;2023-05-15T10:37:11;101525.49;;;10.98;53.05
55755;BME280;41674;52.290;-1.474;2023-05-15T10:39:41;101529.33;;;11.39;57.13
55755;BME280;41674;52.290;-1.474;2023-05-15T10:42:11;101533.48;;;11.91;53.80
55755;BME280;41674;52.290;-1.474;2023-05-15T10:44:40;101534.57;;;11.52;54.23
55755;BME280;41674;52.290;-1.474;2023-05-15T10:47:09;101531.07;;;11.89;55.80
55755;BME280;41674;52.290;-1.474;2023-05-15T10:49:39;101535.16;;;11.85;55.26
55755;BME280;41674;52.290;-1.474;2023-05-15T10:52:08;101528.78;;;11.77;58.19
55755;BME280;41674;52.290;-1.474;2023-05-15T10:54:38;101532.78;;;12.03;58.63
55755;BME280;41674;52.290;-1.474;2023-05-15T10:57:07;101531.16;;;11.89;58.25
55755;BME280;41674;52.290;-1.474;2023-05-15T10:59:37;101536.14;;;11.55;56.70
55755;BME280;41674;52.290;-1.474;2023-05-15T11:04:36;101533.96;;;11.12;58.49
55755;BME280;41674;52.290;-1.474;2023-05-15T11:07:12;101538.79;;;11.56;57.69
55755;BME280;41674;52.290;-1.474;2023-05-15T11:09:36;101540.09;;;11.14;60.06
55755;BME280;41674;52.290;-1.474;2023-05-15T11:12:07;101542.16;;;11.87;58.53
55755;BME280;41674;52.290;-1.474;2023-05-15T11:14:36;101544.49;;;11.70;57.34
55755;BME280;41674;52.290;-1.474;2023-05-15T11:17:06;101543.34;;;11.66;57.46
55755;BME280;41674;52.290;-1.474;2023-05-15T11:19:37;101544.95;;;11.89;60.93
55755;BME280;41674;52.290;-1.474;2023-05-15T11:22:15;101533.29;;;12.68;55.79
55755;BME280;41674;52.290;-1.474;2023-05-15T11:27:03;101529.38;;;13.71;55.46
55755;BME280;41674;52.290;-1.474;2023-05-15T11:29:32;101526.98;;;12.98;53.43
55755;BME280;41674;52.290;-1.474;2023-05-15T11:32:01;101537.20;;;12.17;51.21
55755;BME280;41674;52.290;-1.474;2023-05-15T11:34:32;101531.09;;;12.94;54.76
55755;BME280;41674;52.290;-1.474;2023-05-15T11:37:00;101543.54;;;12.23;52.49
55755;BME280;41674;52.290;-1.474;2023-05-15T11:39:30;101542.77;;;12.48;54.64
55755;BME280;41674;52.290;-1.474;2023-05-15T11:42:09;101546.01;;;12.35;54.62
55755;BME280;41674;52.290;-1.474;2023-05-15T11:44:29;101538.63;;;12.46;53.41
55755;BME280;41674;52.290;-1.474;2023-05-15T11:46:58;101543.38;;;12.38;54.58
55755;BME280;41674;52.290;-1.474;2023-05-15T11:49:28;101547.80;;;11.83;54.47
55755;BME280;41674;52.290;-1.474;2023-05-15T11:51:58;101544.57;;;12.37;55.82
55755;BME280;41674;52.290;-1.474;2023-05-15T11:54:27;101541.76;;;13.05;55.58
55755;BME280;41674;52.290;-1.474;2023-05-15T11:56:57;101534.51;;;13.51;55.46
55755;BME280;41674;52.290;-1.474;2023-05-15T11:59:26;101530.70;;;12.61;55.30
55755;BME280;41674;52.290;-1.474;2023-05-15T12:01:56;101538.45;;;12.28;51.37
55755;BME280;41674;52.290;-1.474;2023-05-15T12:04:25;101537.44;;;12.86;52.19
55755;BME280;41674;52.290;-1.474;2023-05-15T12:06:55;101531.64;;;13.11;51.50
55755;BME280;41674;52.290;-1.474;2023-05-15T12:09:24;101532.84;;;13.87;54.14
55755;BME280;41674;52.290;-1.474;2023-05-15T12:11:54;101529.85;;;14.14;49.71
55755;BME280;41674;52.290;-1.474;2023-05-15T12:14:27;101529.61;;;13.43;46.60
55755;BME280;41674;52.290;-1.474;2023-05-15T12:16:53;101536.33;;;13.52;50.65
55755;BME280;41674;52.290;-1.474;2023-05-15T12:19:26;101535.24;;;12.81;50.76
55755;BME280;41674;52.290;-1.474;2023-05-15T12:21:52;101539.83;;;12.48;51.82
55755;BME280;41674;52.290;-1.474;2023-05-15T12:24:22;101541.06;;;12.47;53.09
55755;BME280;41674;52.290;-1.474;2023-05-15T12:26:51;101532.70;;;13.60;47.66
55755;BME280;41674;52.290;-1.474;2023-05-15T12:29:21;101536.59;;;14.09;50.08
55755;BME280;41674;52.290;-1.474;2023-05-15T12:31:50;101535.26;;;13.51;47.30
55755;BME280;41674;52.290;-1.474;2023-05-15T12:34:20;101537.70;;;13.92;48.02
55755;BME280;41674;52.290;-1.474;2023-05-15T12:36:49;101532.35;;;15.18;49.59
55755;BME280;41674;52.290;-1.474;2023-05-15T12:39:19;101527.74;;;15.66;48.30
55755;BME280;41674;52.290;-1.474;2023-05-15T12:41:48;101526.22;;;16.03;47.41
55755;BME280;41674;52.290;-1.474;2023-05-15T12:44:18;101521.81;;;15.03;42.18
55755;BME280;41674;52.290;-1.474;2023-05-15T12:46:47;101524.08;;;14.57;43.45
55755;BME280;41674;52.290;-1.474;2023-05-15T12:49:20;101522.31;;;16.14;41.86
55755;BME280;41674;52.290;-1.474;2023-05-15T12:51:46;101525.38;;;14.81;41.49
55755;BME280;41674;52.290;-1.474;2023-05-15T12:54:16;101533.25;;;13.88;46.83
55755;BME280;41674;52.290;-1.474;2023-05-15T12:56:46;101535.72;;;13.30;48.42
55755;BME280;41674;52.290;-1.474;2023-05-15T12:59:15;101536.48;;;13.14;49.28
55755;BME280;41674;52.290;-1.474;2023-05-15T13:01:44;101534.25;;;12.88;47.82
55755;BME280;41674;52.290;-1.474;2023-05-15T13:04:15;101538.44;;;13.17;50.31
55755;BME280;41674;52.290;-1.474;2023-05-15T13:06:45;101541.47;;;13.59;49.72
55755;BME280;41674;52.290;-1.474;2023-05-15T13:09:13;101537.87;;;15.28;45.64
55755;BME280;41674;52.290;-1.474;2023-05-15T13:11:43;101522.98;;;16.98;43.45
55755;BME280;41674;52.290;-1.474;2023-05-15T13:16:43;101526.96;;;16.87;41.92
55755;BME280;41674;52.290;-1.474;2023-05-15T13:19:11;101530.21;;;17.08;41.83
55755;BME280;41674;52.290;-1.474;2023-05-15T13:21:40;101539.53;;;15.51;42.44
55755;BME280;41674;52.290;-1.474;2023-05-15T13:24:10;101547.33;;;15.27;44.08